createdAt,value
2023-02-09T00:01:24.683Z,97.92
2023-02-09T00:03:52.182Z,97.74
2023-02-09T00:06:21.355Z,97.68
2023-02-09T00:08:47.909Z,97.67
2023-02-09T00:11:42.330Z,97.55
2023-02-09T00:14:10.508Z,96.92
2023-02-09T00:16:36.983Z,97.45
2023-02-09T00:19:03.223Z,96.94
2023-02-09T00:21:29.721Z,97.65
2023-02-09T00:23:57.584Z,97.48
2023-02-09T00:26:24.330Z,97.87
2023-02-09T00:28:50.483Z,97.69
2023-02-09T00:31:19.407Z,97.52
2023-02-09T00:33:45.770Z,97.35
2023-02-09T00:36:13.726Z,97.51
2023-02-09T00:38:43.768Z,97.00
2023-02-09T00:41:11.792Z,96.74
2023-02-09T00:43:38.174Z,97.37
2023-02-09T00:46:05.191Z,97.54
2023-02-09T00:48:31.601Z,97.60
2023-02-09T00:50:58.695Z,97.86
2023-02-09T00:53:25.288Z,97.42
2023-02-09T00:55:52.301Z,97.65
2023-02-09T00:58:19.429Z,97.69
2023-02-09T01:00:46.237Z,97.33
2023-02-09T01:03:12.474Z,98.47
2023-02-09T01:05:40.241Z,97.74
2023-02-09T01:08:06.446Z,98.54
2023-02-09T01:10:32.999Z,97.73
2023-02-09T01:12:59.127Z,98.29
2023-02-09T01:15:27.856Z,98.45
2023-02-09T01:17:53.974Z,97.64
2023-02-09T01:20:20.524Z,97.48
2023-02-09T01:22:46.654Z,97.84
2023-02-09T01:25:13.061Z,97.84
2023-02-09T01:27:39.714Z,97.19
2023-02-09T01:30:06.635Z,97.69
2023-02-09T01:32:35.209Z,97.30
2023-02-09T01:35:01.684Z,98.08
2023-02-09T01:37:27.822Z,98.22
2023-02-09T01:39:54.628Z,98.75
2023-02-09T01:42:21.115Z,98.26
2023-02-09T01:45:32.734Z,97.90
2023-02-09T01:48:03.036Z,97.67
2023-02-09T01:50:36.516Z,97.57
2023-02-09T01:53:03.377Z,97.21
2023-02-09T01:55:34.058Z,97.20
2023-02-09T01:58:06.417Z,97.43
2023-02-09T02:00:33.273Z,97.50
2023-02-09T02:03:04.444Z,97.53
2023-02-09T02:05:36.217Z,97.77
2023-02-09T02:08:13.857Z,97.07
2023-02-09T02:10:40.567Z,96.89
2023-02-09T02:13:06.781Z,96.67
2023-02-09T02:16:12.154Z,96.38
2023-02-09T02:19:08.974Z,96.34
2023-02-09T02:21:52.225Z,95.99
2023-02-09T02:24:39.913Z,96.29
2023-02-09T02:27:09.947Z,95.96
2023-02-09T02:29:36.049Z,96.08
2023-02-09T02:32:02.488Z,96.01
2023-02-09T02:34:53.635Z,95.45
2023-02-09T02:37:31.371Z,96.29
2023-02-09T02:40:11.947Z,96.51
2023-02-09T02:43:15.842Z,96.80
2023-02-09T02:45:44.647Z,97.60
2023-02-09T02:48:17.863Z,96.91
2023-02-09T02:50:53.752Z,96.15
2023-02-09T02:53:25.499Z,96.92
2023-02-09T02:55:54.202Z,97.51
2023-02-09T02:58:23.062Z,96.82
2023-02-09T03:00:51.463Z,96.98
2023-02-09T03:03:22.224Z,96.91
2023-02-09T03:05:49.632Z,97.50
2023-02-09T03:08:16.123Z,97.88
2023-02-09T03:10:43.116Z,97.03
2023-02-09T03:13:36.640Z,96.67
2023-02-09T03:16:17.543Z,97.11
2023-02-09T03:19:05.920Z,97.23
2023-02-09T03:21:41.435Z,97.34
2023-02-09T03:24:29.963Z,96.84
2023-02-09T03:27:17.799Z,95.87
2023-02-09T03:29:48.924Z,96.75
2023-02-09T03:32:17.141Z,96.58
2023-02-09T03:34:44.854Z,96.60
2023-02-09T03:37:11.116Z,96.14
2023-02-09T03:39:37.743Z,97.30
2023-02-09T03:42:04.128Z,96.98
2023-02-09T03:44:30.855Z,97.16
2023-02-09T03:46:59.959Z,96.86
2023-02-09T03:49:30.916Z,96.62
2023-02-09T03:51:59.911Z,97.12
2023-02-09T03:54:27.817Z,96.80
2023-02-09T03:56:53.937Z,96.48
2023-02-09T03:59:24.697Z,96.78
2023-02-09T04:01:52.969Z,97.96
2023-02-09T04:04:20.308Z,99.06
2023-02-09T04:06:46.884Z,98.73
2023-02-09T04:09:13.625Z,99.53
2023-02-09T04:11:39.750Z,98.84
2023-02-09T04:14:08.350Z,98.60
2023-02-09T04:16:35.486Z,98.47
2023-02-09T04:19:02.911Z,98.77
2023-02-09T04:21:29.117Z,97.95
2023-02-09T04:23:55.651Z,98.33
2023-02-09T04:26:21.894Z,98.02
2023-02-09T04:28:48.790Z,98.15
2023-02-09T04:31:15.445Z,98.06
2023-02-09T04:33:42.045Z,98.19
2023-02-09T04:36:08.747Z,97.84
2023-02-09T04:38:35.607Z,97.32
2023-02-09T04:41:02.942Z,98.04
2023-02-09T04:43:30.120Z,97.18
2023-02-09T04:45:56.963Z,97.56
2023-02-09T04:48:24.927Z,97.80
2023-02-09T04:50:51.261Z,97.31
2023-02-09T04:53:18.864Z,97.83
2023-02-09T04:55:46.773Z,98.16
2023-02-09T04:58:34.386Z,99.06
2023-02-09T05:01:01.564Z,98.49
2023-02-09T05:03:28.708Z,98.23
2023-02-09T05:06:01.666Z,97.95
2023-02-09T05:08:28.594Z,98.75
2023-02-09T05:10:55.291Z,97.87
2023-02-09T05:13:23.810Z,98.52
2023-02-09T05:15:50.144Z,98.95
2023-02-09T05:18:16.757Z,97.73
2023-02-09T05:20:43.747Z,97.79
2023-02-09T05:23:10.840Z,98.15
2023-02-09T05:25:37.377Z,98.49
2023-02-09T05:28:04.094Z,98.83
2023-02-09T05:30:31.924Z,99.49
2023-02-09T05:32:58.427Z,98.28
2023-02-09T05:35:24.915Z,99.21
2023-02-09T05:37:51.364Z,99.86
2023-02-09T05:40:17.652Z,98.83
2023-02-09T05:42:44.166Z,99.57
2023-02-09T05:45:10.423Z,99.17
2023-02-09T05:47:36.992Z,99.76
2023-02-09T05:50:03.419Z,99.46
2023-02-09T05:52:30.038Z,99.31
2023-02-09T05:54:56.258Z,98.91
2023-02-09T05:57:22.933Z,99.13
2023-02-09T05:59:49.159Z,98.60
2023-02-09T06:02:15.726Z,98.57
2023-02-09T06:04:42.181Z,97.87
2023-02-09T06:07:10.934Z,97.05
2023-02-09T06:09:37.969Z,97.75
2023-02-09T06:12:04.716Z,97.78
2023-02-09T06:14:30.923Z,96.70
2023-02-09T06:16:57.810Z,97.79
2023-02-09T06:19:24.346Z,97.25
2023-02-09T06:21:51.662Z,96.06
2023-02-09T06:24:18.508Z,96.54
2023-02-09T06:26:45.953Z,96.36
2023-02-09T06:29:12.397Z,96.99
2023-02-09T06:31:41.286Z,98.27
2023-02-09T06:34:08.307Z,97.52
2023-02-09T06:36:34.990Z,97.26
2023-02-09T06:39:01.284Z,97.64
2023-02-09T06:41:27.900Z,97.91
2023-02-09T06:43:54.687Z,98.77
2023-02-09T06:46:21.250Z,99.33
2023-02-09T06:48:47.927Z,98.25
2023-02-09T06:51:16.420Z,97.79
2023-02-09T06:53:43.744Z,96.86
2023-02-09T06:56:11.958Z,96.10
2023-02-09T06:58:39.920Z,96.40
2023-02-09T07:01:09.383Z,97.39
2023-02-09T07:03:36.810Z,97.37
2023-02-09T07:06:05.750Z,97.37
2023-02-09T07:08:32.647Z,96.60
2023-02-09T07:11:03.702Z,95.50
2023-02-09T07:13:31.268Z,96.47
2023-02-09T07:15:59.481Z,96.58
2023-02-09T07:18:27.500Z,96.45
2023-02-09T07:20:55.602Z,94.55
2023-02-09T07:23:23.496Z,96.13
2023-02-09T07:25:50.181Z,94.73
2023-02-09T07:28:19.932Z,94.25
2023-02-09T07:30:48.537Z,93.74
2023-02-09T07:33:15.957Z,94.32
2023-02-09T07:35:42.353Z,93.30
2023-02-09T07:38:09.648Z,94.39
2023-02-09T07:40:37.616Z,92.94
2023-02-09T07:43:05.877Z,94.47
2023-02-09T07:45:32.984Z,93.45
2023-02-09T07:48:04.158Z,93.65
2023-02-09T07:50:34.995Z,93.64
2023-02-09T07:53:02.797Z,93.80
2023-02-09T07:55:29.685Z,93.90
2023-02-09T07:57:58.181Z,92.27
2023-02-09T08:00:25.601Z,94.01
2023-02-09T08:02:52.823Z,93.45
2023-02-09T08:06:02.948Z,93.89
2023-02-09T08:08:30.082Z,92.40
2023-02-09T08:11:00.199Z,92.73
2023-02-09T08:13:30.042Z,93.31
2023-02-09T08:16:04.276Z,92.99
2023-02-09T08:18:41.296Z,92.10
2023-02-09T08:21:10.708Z,92.55
2023-02-09T08:23:40.635Z,91.85
2023-02-09T08:26:09.739Z,91.90
2023-02-09T08:28:44.145Z,91.47
2023-02-09T08:31:17.663Z,91.46
2023-02-09T08:33:46.924Z,92.40
2023-02-09T08:36:16.311Z,91.76
2023-02-09T08:38:43.974Z,90.08
2023-02-09T08:41:13.738Z,91.11
2023-02-09T08:43:40.979Z,89.61
2023-02-09T08:46:10.731Z,88.67
2023-02-09T08:48:42.463Z,90.37
2023-02-09T08:51:10.816Z,88.81
2023-02-09T08:53:37.980Z,89.91
2023-02-09T08:56:05.339Z,89.28
2023-02-09T08:58:35.950Z,88.74
2023-02-09T09:01:04.826Z,88.26
2023-02-09T09:03:32.224Z,88.30
2023-02-09T09:06:01.585Z,88.00
2023-02-09T09:08:29.110Z,86.74
2023-02-09T09:10:55.908Z,87.49
2023-02-09T09:13:26.287Z,88.14
2023-02-09T09:15:57.438Z,87.62
2023-02-09T09:18:25.434Z,88.03
2023-02-09T09:20:52.819Z,87.51
2023-02-09T09:23:20.600Z,87.68
2023-02-09T09:25:47.623Z,87.19
2023-02-09T09:28:15.097Z,86.76
2023-02-09T09:30:41.820Z,88.33
2023-02-09T09:33:08.466Z,87.28
2023-02-09T09:35:34.914Z,87.40
2023-02-09T09:38:01.582Z,87.16
2023-02-09T09:40:31.664Z,87.53
2023-02-09T09:43:01.737Z,87.67
2023-02-09T09:45:32.718Z,86.75
2023-02-09T09:47:59.515Z,87.04
2023-02-09T09:50:37.664Z,87.76
2023-02-09T09:53:15.492Z,87.49
2023-02-09T09:55:44.722Z,88.43
2023-02-09T09:58:17.306Z,86.57
2023-02-09T10:00:44.682Z,85.97
2023-02-09T10:03:17.605Z,87.93
2023-02-09T10:05:47.977Z,86.34
2023-02-09T10:08:21.950Z,86.51
2023-02-09T10:11:05.232Z,86.55
2023-02-09T10:13:36.300Z,86.43
2023-02-09T10:16:03.615Z,85.41
2023-02-09T10:18:32.483Z,86.88
2023-02-09T10:21:08.243Z,85.72
2023-02-09T10:23:50.063Z,86.11
2023-02-09T10:26:24.824Z,86.41
2023-02-09T10:28:57.281Z,85.23
2023-02-09T10:31:37.706Z,84.15
2023-02-09T10:34:16.337Z,84.16
2023-02-09T10:36:50.418Z,84.50
2023-02-09T10:39:21.446Z,85.42
2023-02-09T10:41:51.127Z,85.56
2023-02-09T10:44:25.573Z,83.84
2023-02-09T10:47:10.973Z,82.90
2023-02-09T10:49:39.215Z,84.31
2023-02-09T10:52:11.439Z,85.29
2023-02-09T10:54:55.621Z,83.49
2023-02-09T10:57:33.043Z,83.34
2023-02-09T11:00:21.156Z,83.12
2023-02-09T11:02:47.282Z,83.53
2023-02-09T11:05:19.956Z,83.15
2023-02-09T11:08:04.115Z,83.91
2023-02-09T11:10:37.074Z,82.14
2023-02-09T11:13:16.666Z,82.94
2023-02-09T11:15:58.987Z,82.97
2023-02-09T11:18:31.385Z,82.84
2023-02-09T11:21:12.752Z,81.84
2023-02-09T11:23:54.874Z,81.59
2023-02-09T11:26:37.606Z,82.51
2023-02-09T11:29:21.770Z,83.14
2023-02-09T11:32:22.294Z,80.69
2023-02-09T11:35:00.857Z,82.45
2023-02-09T11:37:33.611Z,81.93
2023-02-09T11:40:16.717Z,81.79
2023-02-09T11:42:57.169Z,82.31
2023-02-09T11:45:34.470Z,81.23
2023-02-09T11:48:12.058Z,81.17
2023-02-09T11:50:41.778Z,81.69
2023-02-09T11:53:43.839Z,81.11
2023-02-09T11:56:16.563Z,81.62
2023-02-09T11:58:52.575Z,79.57
2023-02-09T12:01:37.637Z,80.26
2023-02-09T12:04:26.283Z,79.47
2023-02-09T12:07:17.329Z,77.78
2023-02-09T12:09:56.443Z,79.76
2023-02-09T12:12:22.829Z,78.92
2023-02-09T12:15:01.486Z,79.77
2023-02-09T12:17:46.892Z,78.66
2023-02-09T12:20:27.344Z,78.47
2023-02-09T12:23:15.274Z,78.34
2023-02-09T12:26:00.551Z,77.44
2023-02-09T12:28:27.089Z,79.14
2023-02-09T12:30:53.885Z,80.49
2023-02-09T12:33:23.279Z,80.16
2023-02-09T12:36:08.902Z,80.74
2023-02-09T12:39:03.878Z,78.83
2023-02-09T12:41:51.263Z,78.75
2023-02-09T12:44:18.853Z,76.66
2023-02-09T12:46:55.286Z,78.03
2023-02-09T12:49:28.147Z,77.85
2023-02-09T12:52:00.810Z,78.53
2023-02-09T12:54:30.754Z,77.60
2023-02-09T12:57:16.080Z,76.96
2023-02-09T12:59:49.064Z,79.25
2023-02-09T13:02:37.455Z,79.70
2023-02-09T13:05:16.234Z,78.11
2023-02-09T13:08:01.259Z,78.68
2023-02-09T13:10:31.568Z,78.55
2023-02-09T13:13:13.964Z,77.45
2023-02-09T13:16:11.166Z,78.69
2023-02-09T13:19:11.998Z,77.34
2023-02-09T13:21:47.970Z,78.76
2023-02-09T13:24:18.006Z,79.23
2023-02-09T13:26:53.375Z,78.19
2023-02-09T13:29:31.426Z,78.90
2023-02-09T13:32:20.389Z,79.64
2023-02-09T13:34:51.560Z,78.93
2023-02-09T13:37:45.984Z,79.22
2023-02-09T13:40:21.643Z,77.15
2023-02-09T13:42:58.035Z,76.38
2023-02-09T13:45:28.392Z,76.15
2023-02-09T13:47:56.729Z,76.28
2023-02-09T13:50:27.570Z,75.03
2023-02-09T13:52:53.829Z,74.40
2023-02-09T13:55:26.048Z,75.27
2023-02-09T13:58:03.734Z,75.15
2023-02-09T14:00:39.024Z,73.60
2023-02-09T14:03:13.565Z,73.74
2023-02-09T14:05:53.598Z,74.51
2023-02-09T14:08:21.638Z,74.26
2023-02-09T14:11:36.447Z,74.30
2023-02-09T14:14:27.829Z,75.14
2023-02-09T14:17:22.826Z,74.50
2023-02-09T14:19:51.531Z,74.99
2023-02-09T14:22:36.462Z,75.24
2023-02-09T14:25:15.017Z,74.69
2023-02-09T14:27:46.860Z,76.15
2023-02-09T14:30:24.675Z,75.67
2023-02-09T14:32:59.097Z,76.46
2023-02-09T14:35:28.590Z,74.11
2023-02-09T14:37:58.830Z,74.31
2023-02-09T14:40:29.323Z,75.66
2023-02-09T14:42:59.439Z,75.08
2023-02-09T14:45:38.646Z,75.59
2023-02-09T14:48:22.323Z,74.80
2023-02-09T14:50:53.619Z,75.18
2023-02-09T14:53:22.916Z,73.77
2023-02-09T14:55:49.784Z,74.46
2023-02-09T14:58:25.552Z,76.05
2023-02-09T15:00:54.688Z,75.50
2023-02-09T15:03:22.464Z,76.83
2023-02-09T15:05:51.560Z,77.64
2023-02-09T15:08:23.154Z,79.04
2023-02-09T15:10:52.988Z,78.72
2023-02-09T15:13:20.883Z,77.84
2023-02-09T15:15:47.323Z,78.56
2023-02-09T15:18:25.808Z,77.47
2023-02-09T15:20:52.367Z,79.84
2023-02-09T15:23:19.387Z,80.24
2023-02-09T15:25:46.073Z,80.31
2023-02-09T15:28:16.535Z,79.26
2023-02-09T15:30:43.199Z,79.98
2023-02-09T15:33:11.723Z,80.60
2023-02-09T15:35:39.980Z,80.22
2023-02-09T15:38:11.216Z,80.52
2023-02-09T15:41:00.538Z,81.15
2023-02-09T15:43:47.136Z,81.03
2023-02-09T15:46:32.873Z,82.82
2023-02-09T15:49:00.186Z,83.65
2023-02-09T15:51:30.504Z,84.44
2023-02-09T15:54:00.517Z,84.61
2023-02-09T15:56:27.261Z,84.49
2023-02-09T15:58:56.437Z,82.97
2023-02-09T16:01:22.717Z,83.23
2023-02-09T16:03:49.488Z,83.75
2023-02-09T16:06:18.787Z,86.18
2023-02-09T16:08:47.786Z,85.94
2023-02-09T16:11:20.389Z,87.58
2023-02-09T16:13:48.011Z,88.32
2023-02-09T16:16:17.817Z,84.86
2023-02-09T16:18:46.266Z,85.62
2023-02-09T16:21:33.260Z,86.47
2023-02-09T16:24:02.878Z,89.11
2023-02-09T16:26:30.420Z,88.76
2023-02-09T16:28:57.838Z,89.75
2023-02-09T16:31:24.800Z,89.61
2023-02-09T16:33:51.782Z,87.35
2023-02-09T16:36:27.983Z,89.31
2023-02-09T16:38:54.744Z,87.53
2023-02-09T16:41:39.735Z,89.94
2023-02-09T16:44:23.123Z,90.27
2023-02-09T16:46:54.697Z,89.30
2023-02-09T16:49:30.553Z,87.93
2023-02-09T16:52:01.263Z,88.26
2023-02-09T16:54:30.629Z,90.34
2023-02-09T16:56:57.429Z,90.00
2023-02-09T16:59:24.605Z,90.69
2023-02-09T17:01:53.672Z,91.93
2023-02-09T17:04:20.323Z,92.55
2023-02-09T17:06:50.292Z,89.47
2023-02-09T17:09:17.008Z,90.59
2023-02-09T17:11:43.810Z,91.85
2023-02-09T17:14:11.722Z,92.71
2023-02-09T17:16:42.496Z,93.58
2023-02-09T17:19:14.371Z,92.25
2023-02-09T17:21:41.573Z,90.04
2023-02-09T17:24:16.419Z,90.63
2023-02-09T17:26:43.723Z,90.53
2023-02-09T17:29:11.409Z,89.70
2023-02-09T17:31:52.298Z,90.83
2023-02-09T17:34:21.280Z,90.07
2023-02-09T17:36:47.654Z,89.60
2023-02-09T17:39:16.114Z,88.64
2023-02-09T17:41:44.786Z,86.01
2023-02-09T17:44:24.093Z,87.31
2023-02-09T17:46:55.266Z,89.70
2023-02-09T17:49:21.918Z,87.23
2023-02-09T17:51:48.923Z,88.59
2023-02-09T17:54:18.239Z,88.84
2023-02-09T17:56:45.450Z,89.29
2023-02-09T17:59:14.137Z,91.53
2023-02-09T18:01:45.190Z,88.57
2023-02-09T18:04:18.873Z,88.09
2023-02-09T18:06:45.760Z,89.55
2023-02-09T18:09:12.921Z,90.37
2023-02-09T18:11:39.154Z,87.99
2023-02-09T18:14:06.101Z,89.05
2023-02-09T18:16:32.709Z,90.07
2023-02-09T18:18:59.345Z,89.87
2023-02-09T18:21:25.731Z,90.11
2023-02-09T18:23:52.595Z,90.01
2023-02-09T18:26:19.102Z,89.15
2023-02-09T18:28:46.152Z,87.76
2023-02-09T18:31:17.016Z,87.65
2023-02-09T18:33:44.969Z,86.97
2023-02-09T18:36:14.576Z,87.53
2023-02-09T18:38:41.877Z,88.13
2023-02-09T18:41:12.424Z,88.00
2023-02-09T18:43:39.406Z,88.36
2023-02-09T18:46:05.987Z,85.88
2023-02-09T18:48:32.959Z,84.20
2023-02-09T18:50:59.400Z,84.16
2023-02-09T18:53:26.313Z,84.47
2023-02-09T18:55:53.403Z,83.91
2023-02-09T18:58:20.541Z,84.28
2023-02-09T19:00:47.101Z,83.10
2023-02-09T19:03:17.325Z,84.33
2023-02-09T19:05:44.563Z,84.77
2023-02-09T19:08:12.799Z,84.29
2023-02-09T19:10:42.344Z,84.33
2023-02-09T19:13:11.045Z,85.17
2023-02-09T19:15:38.476Z,83.78
2023-02-09T19:18:05.662Z,83.11
2023-02-09T19:20:33.963Z,83.51
2023-02-09T19:23:03.054Z,84.96
2023-02-09T19:25:30.318Z,84.44
2023-02-09T19:27:57.832Z,84.82
2023-02-09T19:30:25.813Z,84.04
2023-02-09T19:32:54.991Z,83.21
2023-02-09T19:35:22.372Z,84.39
2023-02-09T19:37:53.456Z,83.76
2023-02-09T19:40:27.335Z,83.10
2023-02-09T19:42:56.092Z,83.64
2023-02-09T19:45:23.152Z,82.79
2023-02-09T19:47:50.793Z,84.30
2023-02-09T19:50:17.805Z,84.00
2023-02-09T19:52:46.823Z,83.50
2023-02-09T19:55:14.290Z,83.82
2023-02-09T19:57:41.934Z,83.47
2023-02-09T20:00:10.645Z,84.79
2023-02-09T20:02:38.783Z,83.69
2023-02-09T20:05:06.326Z,84.07
2023-02-09T20:07:33.098Z,84.63
2023-02-09T20:10:00.232Z,84.72
2023-02-09T20:12:27.514Z,85.24
2023-02-09T20:14:54.436Z,83.61
2023-02-09T20:17:21.787Z,83.87
2023-02-09T20:19:48.446Z,83.19
2023-02-09T20:22:15.480Z,83.26
2023-02-09T20:24:43.636Z,84.01
2023-02-09T20:27:11.420Z,83.78
2023-02-09T20:29:38.587Z,82.79
2023-02-09T20:32:05.907Z,82.54
2023-02-09T20:34:32.774Z,82.91
2023-02-09T20:36:59.981Z,83.49
2023-02-09T20:39:26.741Z,83.16
2023-02-09T20:42:16.538Z,84.40
2023-02-09T20:45:02.060Z,83.53
2023-02-09T20:47:31.816Z,83.29
2023-02-09T20:49:59.428Z,83.90
2023-02-09T20:52:30.064Z,83.01
2023-02-09T20:54:57.360Z,82.82
2023-02-09T20:57:28.811Z,82.59
2023-02-09T20:59:57.496Z,83.68
2023-02-09T21:02:25.107Z,83.18
2023-02-09T21:04:56.294Z,83.77
2023-02-09T21:07:24.511Z,83.39
2023-02-09T21:10:12.221Z,82.45
2023-02-09T21:12:58.104Z,83.35
2023-02-09T21:15:24.916Z,83.02
2023-02-09T21:17:51.725Z,83.56
2023-02-09T21:20:18.480Z,83.58
2023-02-09T21:22:44.970Z,83.97
2023-02-09T21:25:13.245Z,83.25
2023-02-09T21:27:39.569Z,84.03
2023-02-09T21:30:06.629Z,83.85
2023-02-09T21:32:37.832Z,82.88
2023-02-09T21:35:09.499Z,83.95
2023-02-09T21:37:42.269Z,84.21
2023-02-09T21:40:10.692Z,83.68
2023-02-09T21:42:38.452Z,83.64
2023-02-09T21:45:07.713Z,84.44
2023-02-09T21:47:37.056Z,83.90
2023-02-09T21:50:06.805Z,84.15
2023-02-09T21:52:34.117Z,84.74
2023-02-09T21:55:01.735Z,84.35
2023-02-09T21:57:28.885Z,83.83
2023-02-09T21:59:56.094Z,83.81
2023-02-09T22:02:22.632Z,84.12
2023-02-09T22:04:49.985Z,84.67
2023-02-09T22:07:16.415Z,84.27
2023-02-09T22:09:43.402Z,83.91
2023-02-09T22:12:10.099Z,83.95
2023-02-09T22:14:36.761Z,84.61
2023-02-09T22:17:03.576Z,83.73
2023-02-09T22:19:30.489Z,84.08
2023-02-09T22:21:57.356Z,85.09
2023-02-09T22:24:24.618Z,84.47
2023-02-09T22:26:51.009Z,84.34
2023-02-09T22:29:17.792Z,84.25
2023-02-09T22:31:45.127Z,84.10
2023-02-09T22:34:12.172Z,84.38
2023-02-09T22:36:39.061Z,84.68
2023-02-09T22:39:06.831Z,84.68
2023-02-09T22:41:33.374Z,85.12
2023-02-09T22:44:05.699Z,85.05
2023-02-09T22:46:35.054Z,85.25
2023-02-09T22:49:05.512Z,85.06
2023-02-09T22:51:32.982Z,85.15
2023-02-09T22:54:00.651Z,85.80
2023-02-09T22:56:28.272Z,84.92
2023-02-09T22:58:56.345Z,84.77
2023-02-09T23:01:22.617Z,85.37
2023-02-09T23:03:49.526Z,85.89
2023-02-09T23:06:20.250Z,85.70
2023-02-09T23:08:47.246Z,86.19
2023-02-09T23:11:16.745Z,85.49
2023-02-09T23:13:43.892Z,86.46
2023-02-09T23:16:21.113Z,86.11
2023-02-09T23:18:59.360Z,86.23
2023-02-09T23:21:28.240Z,86.80
2023-02-09T23:23:55.456Z,85.76
2023-02-09T23:26:22.352Z,85.80
2023-02-09T23:28:55.415Z,85.90
2023-02-09T23:31:23.657Z,86.08
2023-02-09T23:33:50.549Z,85.99
2023-02-09T23:36:20.907Z,86.07
2023-02-09T23:38:52.312Z,85.98
2023-02-09T23:41:19.329Z,86.20
2023-02-09T23:43:46.537Z,86.22
2023-02-09T23:46:16.710Z,86.07
2023-02-09T23:48:47.191Z,85.83
2023-02-09T23:51:17.936Z,86.24
2023-02-09T23:53:46.029Z,86.23
2023-02-09T23:56:13.536Z,86.65
2023-02-09T23:58:43.259Z,86.82
